createdAt,value
2022-09-21T00:08:00.392Z,7.50
2022-09-21T00:10:50.324Z,7.50
2022-09-21T00:36:03.254Z,8.10
2022-09-21T00:38:56.462Z,8.10
2022-09-21T00:44:34.927Z,8.10
2022-09-21T00:47:31.453Z,8.10
2022-09-21T00:50:23.244Z,8.10
2022-09-21T00:56:00.828Z,7.90
2022-09-21T00:58:51.210Z,7.90
2022-09-21T01:04:28.169Z,7.90
2022-09-21T01:07:19.698Z,7.80
2022-09-21T01:10:12.395Z,7.70
2022-09-21T01:13:31.062Z,7.80
2022-09-21T01:16:34.815Z,7.80
2022-09-21T01:19:50.293Z,7.90
2022-09-21T01:25:56.605Z,7.90
2022-09-21T01:28:57.510Z,7.80
2022-09-21T01:32:02.957Z,7.80
2022-09-21T01:35:05.307Z,7.80
2022-09-21T01:38:02.262Z,7.80
2022-09-21T01:40:58.356Z,7.80
2022-09-21T01:43:56.423Z,7.70
2022-09-21T01:46:46.295Z,7.70
2022-09-21T01:49:38.450Z,7.70
2022-09-21T01:52:37.642Z,7.70
2022-09-21T01:55:50.228Z,7.60
2022-09-21T01:58:47.512Z,7.60
2022-09-21T02:01:46.046Z,7.60
2022-09-21T02:04:35.063Z,7.60
2022-09-21T02:10:15.444Z,7.70
2022-09-21T02:13:06.078Z,7.70
2022-09-21T02:16:08.222Z,7.60
2022-09-21T02:19:12.205Z,7.60
2022-09-21T02:22:21.701Z,7.60
2022-09-21T02:25:19.713Z,7.60
2022-09-21T02:28:18.207Z,7.60
2022-09-21T02:31:26.020Z,7.60
2022-09-21T02:34:45.623Z,7.50
2022-09-21T02:37:56.664Z,7.30
2022-09-21T02:40:56.707Z,7.40
2022-09-21T02:44:04.154Z,7.40
2022-09-21T02:47:07.709Z,7.50
2022-09-21T02:50:04.139Z,7.40
2022-09-21T02:52:52.999Z,7.40
2022-09-21T02:55:42.374Z,7.40
2022-09-21T02:58:30.915Z,7.40
2022-09-21T03:01:19.564Z,7.50
2022-09-21T03:04:06.740Z,7.40
2022-09-21T03:12:29.753Z,7.40
2022-09-21T03:18:06.536Z,7.50
2022-09-21T03:40:29.139Z,7.40
2022-09-21T03:57:15.054Z,7.20
2022-09-21T04:00:04.785Z,7.20
2022-09-21T04:11:16.432Z,7.10
2022-09-21T04:25:15.676Z,7.00
2022-09-21T04:30:54.375Z,7.00
2022-09-21T04:56:13.686Z,7.00
2022-09-21T05:10:11.733Z,6.90
2022-09-21T05:12:58.723Z,6.90
2022-09-21T05:33:02.349Z,7.10
2022-09-21T05:36:21.834Z,7.10
2022-09-21T05:39:09.288Z,7.00
2022-09-21T05:44:44.414Z,7.10
2022-09-21T05:47:44.729Z,8.90
2022-09-21T05:50:40.353Z,7.20
2022-09-21T05:53:54.153Z,7.20
2022-09-21T05:59:58.243Z,7.20
2022-09-21T06:03:10.844Z,7.00
2022-09-21T06:25:36.575Z,7.30
2022-09-21T06:36:46.264Z,7.60
2022-09-21T06:42:20.802Z,7.40
2022-09-21T06:50:43.080Z,7.50
2022-09-21T06:53:31.183Z,7.70
2022-09-21T07:07:31.583Z,7.90
2022-09-21T07:43:53.085Z,8.40
2022-09-21T07:46:45.808Z,8.50
2022-09-21T08:01:06.949Z,8.60
2022-09-21T08:03:57.012Z,8.70
2022-09-21T08:06:44.030Z,8.60
2022-09-21T08:21:00.232Z,9.70
2022-09-21T08:23:49.151Z,9.80
2022-09-21T08:26:36.596Z,9.90
2022-09-21T08:29:24.633Z,9.90
2022-09-21T08:44:00.217Z,9.60
2022-09-21T08:46:54.794Z,9.60
2022-09-21T08:49:46.267Z,10.20
2022-09-21T08:52:33.743Z,9.90
2022-09-21T08:55:21.333Z,10.10
2022-09-21T08:58:22.643Z,10.20
2022-09-21T09:01:54.627Z,10.30
2022-09-21T09:05:06.607Z,10.50
2022-09-21T09:11:24.356Z,10.40
2022-09-21T09:14:31.037Z,10.40
2022-09-21T09:17:39.210Z,10.40
2022-09-21T09:20:43.637Z,10.50
2022-09-21T09:23:41.550Z,10.60
2022-09-21T09:26:36.711Z,10.30
2022-09-21T09:29:43.715Z,10.20
2022-09-21T09:32:42.551Z,10.40
2022-09-21T09:38:40.642Z,10.20
2022-09-21T09:41:42.642Z,10.30
2022-09-21T09:44:47.721Z,10.30
2022-09-21T09:48:12.291Z,10.40
2022-09-21T09:53:46.861Z,10.70
2022-09-21T09:59:38.640Z,11.00
2022-09-21T10:02:27.888Z,11.20
2022-09-21T10:05:34.532Z,11.40
2022-09-21T10:08:28.989Z,11.60
2022-09-21T10:11:16.690Z,11.70
2022-09-21T10:14:13.768Z,11.70
2022-09-21T10:17:06.400Z,11.70
2022-09-21T10:20:06.114Z,11.90
2022-09-21T10:22:56.998Z,12.00
2022-09-21T10:25:44.009Z,12.00
2022-09-21T10:28:31.874Z,12.20
2022-09-21T10:31:23.709Z,12.30
2022-09-21T10:34:15.265Z,12.40
2022-09-21T10:37:23.531Z,12.60
2022-09-21T10:40:19.561Z,12.70
2022-09-21T10:45:56.947Z,12.90
2022-09-21T10:48:46.434Z,13.00
2022-09-21T10:54:29.256Z,13.10
2022-09-21T10:57:19.402Z,13.30
2022-09-21T11:00:29.346Z,13.50
2022-09-21T11:03:44.104Z,13.60
2022-09-21T11:06:40.916Z,13.70
2022-09-21T11:09:49.000Z,13.80
2022-09-21T11:12:41.766Z,14.00
2022-09-21T11:15:49.269Z,14.10
2022-09-21T11:19:04.908Z,14.10
2022-09-21T11:22:05.447Z,14.20
2022-09-21T11:25:09.829Z,14.10
2022-09-21T11:28:28.109Z,14.20
2022-09-21T11:34:28.757Z,14.50
2022-09-21T11:37:55.621Z,14.50
2022-09-21T11:41:20.745Z,14.40
2022-09-21T11:47:22.991Z,14.70
2022-09-21T11:50:41.173Z,14.90
2022-09-21T11:54:05.258Z,15.00
2022-09-21T11:57:03.443Z,15.00
2022-09-21T12:00:15.602Z,15.10
2022-09-21T12:03:29.049Z,15.10
2022-09-21T12:06:35.169Z,15.10
2022-09-21T12:12:24.213Z,15.40
2022-09-21T12:15:26.141Z,15.60
2022-09-21T12:18:24.022Z,15.50
2022-09-21T12:21:26.391Z,15.60
2022-09-21T12:24:38.338Z,14.60
2022-09-21T12:27:33.812Z,15.70
2022-09-21T12:30:23.395Z,15.80
2022-09-21T12:33:25.403Z,15.80
2022-09-21T12:36:32.137Z,15.80
2022-09-21T12:39:27.220Z,15.90
2022-09-21T12:42:17.320Z,15.90
2022-09-21T12:45:35.643Z,15.90
2022-09-21T12:48:41.451Z,15.90
2022-09-21T12:51:34.933Z,15.80
2022-09-21T12:54:49.213Z,16.10
2022-09-21T12:58:10.949Z,16.10
2022-09-21T13:01:06.489Z,16.20
2022-09-21T13:04:10.266Z,16.40
2022-09-21T13:07:21.408Z,16.40
2022-09-21T13:10:39.881Z,16.50
2022-09-21T13:13:33.892Z,16.50
2022-09-21T13:16:28.867Z,16.50
2022-09-21T13:19:23.323Z,16.60
2022-09-21T13:22:25.017Z,16.50
2022-09-21T13:25:14.983Z,16.60
2022-09-21T13:28:13.489Z,16.40
2022-09-21T13:31:09.943Z,16.40
2022-09-21T13:34:28.812Z,16.50
2022-09-21T13:37:18.536Z,16.50
2022-09-21T13:48:29.542Z,16.50
2022-09-21T13:57:20.013Z,16.20
2022-09-21T14:00:12.807Z,16.00
2022-09-21T14:03:21.780Z,15.90
2022-09-21T14:06:20.427Z,15.80
2022-09-21T14:09:51.542Z,15.70
2022-09-21T14:12:44.508Z,15.60
2022-09-21T14:15:35.781Z,15.50
2022-09-21T14:18:37.619Z,15.40
2022-09-21T14:24:20.881Z,15.30
2022-09-21T14:27:25.929Z,15.20
2022-09-21T14:30:25.675Z,15.20
2022-09-21T14:33:29.164Z,15.10
2022-09-21T14:36:22.200Z,15.00
2022-09-21T14:39:32.021Z,14.90
2022-09-21T14:42:26.064Z,14.90
2022-09-21T14:45:18.189Z,14.90
2022-09-21T14:48:45.891Z,14.80
2022-09-21T14:52:29.080Z,14.80
2022-09-21T14:55:35.530Z,14.70
2022-09-21T14:58:33.134Z,14.60
2022-09-21T15:01:36.320Z,14.60
2022-09-21T15:04:45.323Z,14.60
2022-09-21T15:08:02.720Z,14.60
2022-09-21T15:11:14.762Z,14.50
2022-09-21T15:14:43.391Z,14.40
2022-09-21T15:17:31.318Z,14.40
2022-09-21T15:20:23.431Z,14.30
2022-09-21T15:23:19.475Z,14.20
2022-09-21T15:26:14.229Z,14.20
2022-09-21T15:29:10.969Z,14.10
2022-09-21T15:31:59.627Z,14.10
2022-09-21T15:37:39.419Z,14.20
2022-09-21T15:40:27.814Z,14.40
2022-09-21T15:46:12.081Z,14.40
2022-09-21T15:52:09.432Z,14.40
2022-09-21T15:55:00.337Z,14.40
2022-09-21T15:57:50.173Z,14.30
2022-09-21T16:06:41.596Z,14.00
2022-09-21T16:09:45.854Z,14.00
2022-09-21T16:12:46.308Z,14.30
2022-09-21T16:18:51.574Z,14.50
2022-09-21T16:27:20.000Z,14.30
2022-09-21T16:30:46.046Z,14.20
2022-09-21T16:33:41.424Z,14.10
2022-09-21T16:56:16.263Z,13.20
2022-09-21T16:59:12.531Z,13.20
2022-09-21T17:10:37.245Z,12.90
2022-09-21T17:21:48.282Z,12.20
2022-09-21T17:30:26.947Z,12.00
2022-09-21T17:38:53.539Z,11.60
2022-09-21T17:41:52.082Z,11.60
2022-09-21T17:44:54.672Z,11.50
2022-09-21T17:47:42.441Z,11.60
2022-09-21T17:56:40.029Z,11.20
2022-09-21T18:02:23.951Z,11.00
2022-09-21T18:05:29.956Z,11.00
2022-09-21T18:08:17.654Z,10.80
2022-09-21T18:11:18.005Z,10.80
2022-09-21T18:14:27.796Z,10.70
2022-09-21T18:17:23.503Z,10.60
2022-09-21T18:20:18.166Z,10.60
2022-09-21T18:25:57.071Z,10.50
2022-09-21T18:28:46.919Z,10.50
2022-09-21T18:31:48.686Z,10.50
2022-09-21T18:35:08.530Z,10.40
2022-09-21T18:38:00.034Z,10.40
2022-09-21T18:40:59.388Z,10.20
2022-09-21T18:43:58.392Z,10.20
2022-09-21T18:47:15.628Z,10.10
2022-09-21T18:50:25.584Z,10.00
2022-09-21T19:01:36.935Z,9.70
2022-09-21T19:07:30.998Z,9.60
2022-09-21T19:10:29.711Z,9.50
2022-09-21T19:13:22.622Z,9.50
2022-09-21T19:16:35.314Z,9.50
2022-09-21T19:22:38.003Z,9.50
2022-09-21T19:25:50.168Z,9.50
2022-09-21T19:28:48.108Z,9.40
2022-09-21T19:45:52.361Z,9.30
2022-09-21T19:48:49.361Z,9.20
2022-09-21T19:51:53.512Z,9.10
2022-09-21T19:54:59.429Z,9.10
2022-09-21T19:58:05.282Z,9.10
2022-09-21T20:00:56.725Z,9.10
2022-09-21T20:03:46.074Z,9.00
2022-09-21T20:06:43.978Z,9.00
2022-09-21T20:09:42.991Z,9.00
2022-09-21T20:12:39.702Z,9.00
2022-09-21T20:16:05.534Z,8.90
2022-09-21T20:19:17.499Z,8.90
2022-09-21T20:22:12.974Z,8.90
2022-09-21T20:25:09.169Z,8.90
2022-09-21T20:27:57.355Z,8.80
2022-09-21T20:47:29.636Z,8.60
2022-09-21T20:55:55.886Z,8.50
2022-09-21T21:12:41.790Z,8.60
2022-09-21T21:29:52.881Z,8.40
2022-09-21T22:28:34.485Z,7.90
2022-09-21T22:31:26.356Z,7.90
2022-09-21T22:51:01.829Z,7.70
2022-09-21T22:53:50.708Z,7.60
2022-09-21T23:07:51.515Z,7.60
2022-09-21T23:16:15.375Z,7.40
2022-09-21T23:35:50.774Z,7.30
2022-09-21T23:41:28.282Z,7.40
2022-09-21T23:44:15.428Z,7.30
2022-09-21T23:52:37.537Z,7.20
